Time;durP1;ratioP1;P1;durP2;ratioP2;P2;SDS_P1;SDS_P2;PMS_P1;PMS_P2;Temp;Humidity;BMP_temperature;BMP_pressure;BME280_temperature;BME280_humidity;BME280_pressure;Samples;Min_cycle;Max_cycle;Signal;HPM_P1;HPM_P2
2021/12/29 00:01:53;;;;;;;7.27;2.43;;;7.90;99.90;;;;;;5031698;28;20271;-75
2021/12/29 00:04:19;;;;;;;10.40;2.50;;;7.90;99.90;;;;;;5032570;28;20243;-75
2021/12/29 00:06:44;;;;;;;8.13;2.20;;;7.90;99.90;;;;;;5032429;28;20183;-76
2021/12/29 00:09:10;;;;;;;9.13;2.50;;;7.90;99.90;;;;;;5038257;28;20196;-75
2021/12/29 00:11:40;;;;;;;7.37;2.53;;;7.90;99.90;;;;;;5040337;28;20179;-78
2021/12/29 00:14:08;;;;;;;7.13;2.00;;;8.00;99.90;;;;;;5036631;28;20255;-75
2021/12/29 00:16:35;;;;;;;10.97;2.47;;;7.90;99.90;;;;;;5030955;28;20183;-75
2021/12/29 00:19:02;;;;;;;7.30;2.77;;;7.90;99.90;;;;;;5030350;28;20196;-75
2021/12/29 00:21:29;;;;;;;9.10;2.57;;;7.90;99.90;;;;;;5034463;28;20659;-75
2021/12/29 00:23:58;;;;;;;6.93;2.13;;;7.90;99.90;;;;;;5034411;28;20219;-74
2021/12/29 00:26:26;;;;;;;9.23;2.10;;;7.90;99.90;;;;;;5034998;28;20192;-74
2021/12/29 00:28:52;;;;;;;7.10;2.10;;;8.00;99.90;;;;;;5040853;28;20278;-75
2021/12/29 00:31:18;;;;;;;10.17;2.27;;;7.90;99.90;;;;;;5040237;28;20176;-75
2021/12/29 00:33:44;;;;;;;8.83;2.40;;;7.90;99.90;;;;;;5034339;28;20183;-75
2021/12/29 00:36:09;;;;;;;8.63;2.00;;;7.90;99.90;;;;;;5034240;28;20176;-75
2021/12/29 00:38:35;;;;;;;6.17;2.07;;;7.90;99.90;;;;;;5033619;28;20199;-76
2021/12/29 00:41:01;;;;;;;8.70;2.20;;;7.90;99.90;;;;;;5034542;28;20184;-77
2021/12/29 00:43:26;;;;;;;7.37;2.07;;;7.80;99.90;;;;;;5034515;28;20527;-76
2021/12/29 00:45:52;;;;;;;8.37;2.33;;;7.80;99.90;;;;;;5034875;28;20222;-77
2021/12/29 00:48:19;;;;;;;8.40;2.30;;;7.80;99.90;;;;;;5033956;28;20466;-76
2021/12/29 00:50:45;;;;;;;6.57;2.10;;;7.80;99.90;;;;;;5034711;28;20188;-74
2021/12/29 00:53:11;;;;;;;6.40;2.70;;;7.80;99.90;;;;;;5034741;28;20204;-76
2021/12/29 00:55:38;;;;;;;9.90;2.27;;;7.80;99.90;;;;;;5034546;28;20246;-76
2021/12/29 00:58:07;;;;;;;8.50;2.27;;;7.80;99.90;;;;;;5033570;28;20615;-76
2021/12/29 01:00:36;;;;;;;6.33;2.30;;;7.80;99.90;;;;;;5034654;28;20653;-76
2021/12/29 01:03:03;;;;;;;5.90;1.90;;;7.80;99.90;;;;;;5034220;28;20180;-76
2021/12/29 01:05:29;;;;;;;6.83;2.27;;;7.80;99.90;;;;;;5034344;28;20219;-75
2021/12/29 01:07:54;;;;;;;5.93;1.93;;;7.80;99.90;;;;;;5034016;28;20195;-76
2021/12/29 01:10:20;;;;;;;6.57;2.60;;;7.90;99.90;;;;;;5035500;28;20628;-77
2021/12/29 01:12:54;;;;;;;4.67;1.83;;;7.80;99.90;;;;;;5035779;28;20294;-76
2021/12/29 01:15:27;;;;;;;4.97;1.77;;;7.80;99.90;;;;;;5034453;28;20521;-76
2021/12/29 01:17:55;;;;;;;7.20;2.00;;;7.80;99.90;;;;;;5034277;28;20195;-77
2021/12/29 01:20:22;;;;;;;6.37;1.93;;;7.80;99.90;;;;;;5035816;28;20385;-76
2021/12/29 01:22:48;;;;;;;4.10;1.93;;;7.80;99.90;;;;;;5036220;28;20172;-76
2021/12/29 01:25:13;;;;;;;6.40;1.97;;;7.80;99.90;;;;;;5035412;28;20208;-76
2021/12/29 01:27:39;;;;;;;9.43;1.80;;;7.80;99.90;;;;;;5035515;28;20334;-76
2021/12/29 01:30:09;;;;;;;6.53;2.10;;;7.80;99.90;;;;;;5035273;28;20262;-76
2021/12/29 01:32:35;;;;;;;5.33;1.80;;;7.80;99.90;;;;;;5034828;28;20178;-76
2021/12/29 01:35:01;;;;;;;3.70;1.70;;;7.70;99.90;;;;;;5036117;28;20184;-77
2021/12/29 01:37:26;;;;;;;10.10;2.33;;;7.70;99.90;;;;;;5036277;28;20591;-76
2021/12/29 01:39:52;;;;;;;9.20;2.20;;;7.70;99.90;;;;;;5038003;28;20309;-77
2021/12/29 01:42:18;;;;;;;10.50;2.43;;;7.70;99.90;;;;;;5036382;28;20175;-77
2021/12/29 01:44:43;;;;;;;5.03;1.90;;;7.80;99.90;;;;;;5036632;28;20211;-77
2021/12/29 01:47:09;;;;;;;5.50;1.87;;;7.80;99.90;;;;;;5035711;28;20183;-78
2021/12/29 01:49:35;;;;;;;4.77;2.40;;;7.80;99.90;;;;;;5035461;28;20271;-76
2021/12/29 01:52:10;;;;;;;4.47;2.10;;;7.80;99.90;;;;;;5036659;28;20182;-77
2021/12/29 01:54:37;;;;;;;8.97;1.87;;;7.80;99.90;;;;;;5037159;28;20191;-77
2021/12/29 01:57:06;;;;;;;5.60;1.50;;;7.80;99.90;;;;;;5034893;28;20242;-76
2021/12/29 01:59:31;;;;;;;7.33;2.33;;;7.80;99.90;;;;;;5034567;28;20180;-77
2021/12/29 02:01:57;;;;;;;3.40;1.60;;;7.80;99.90;;;;;;5033704;28;20265;-77
2021/12/29 02:04:23;;;;;;;6.67;2.53;;;7.80;99.90;;;;;;5035517;28;20258;-76
2021/12/29 02:06:49;;;;;;;4.07;1.50;;;7.90;99.90;;;;;;5033649;28;20583;-76
2021/12/29 02:09:15;;;;;;;5.50;1.97;;;7.90;99.90;;;;;;5032414;28;20282;-75
2021/12/29 02:11:42;;;;;;;3.70;1.70;;;7.90;99.90;;;;;;5032624;28;20254;-75
2021/12/29 02:14:09;;;;;;;6.03;1.70;;;7.90;99.90;;;;;;5032481;28;20204;-76
2021/12/29 02:16:35;;;;;;;3.73;1.50;;;7.90;99.90;;;;;;5036068;28;20164;-76
2021/12/29 02:19:04;;;;;;;6.23;1.73;;;8.40;99.90;;;;;;5032830;28;20195;-75
2021/12/29 02:21:32;;;;;;;4.83;1.70;;;7.80;99.90;;;;;;5033329;28;20222;-75
2021/12/29 02:26:25;;;;;;;6.00;1.90;;;7.70;99.90;;;;;;5032259;28;20569;-76
2021/12/29 02:28:51;;;;;;;3.03;1.47;;;7.80;99.90;;;;;;5031554;28;20294;-75
2021/12/29 02:31:16;;;;;;;3.97;1.40;;;7.80;99.90;;;;;;5032413;28;20263;-76
2021/12/29 02:33:42;;;;;;;9.03;1.90;;;7.70;99.90;;;;;;5032812;28;20176;-77
2021/12/29 02:36:08;;;;;;;3.07;1.30;;;7.80;99.90;;;;;;5032386;28;20168;-77
2021/12/29 02:38:43;;;;;;;4.10;1.57;;;7.80;99.90;;;;;;5031834;28;20672;-76
2021/12/29 02:41:08;;;;;;;6.17;1.80;;;7.70;99.90;;;;;;5032113;28;20183;-76
2021/12/29 02:43:39;;;;;;;5.97;1.63;;;7.70;99.90;;;;;;5031240;28;20199;-75
2021/12/29 02:46:11;;;;;;;3.43;1.50;;;7.70;99.90;;;;;;5032280;28;20187;-76
2021/12/29 02:48:41;;;;;;;2.07;1.30;;;7.60;99.90;;;;;;5031421;28;20199;-76
2021/12/29 02:51:08;;;;;;;3.63;1.63;;;7.60;99.90;;;;;;5031746;28;20194;-75
2021/12/29 02:53:35;;;;;;;4.53;1.50;;;7.60;99.90;;;;;;5031641;28;20196;-77
2021/12/29 02:56:02;;;;;;;3.90;1.37;;;7.60;99.90;;;;;;5031608;28;20246;-75
2021/12/29 02:58:28;;;;;;;2.80;1.30;;;7.60;99.90;;;;;;5032437;28;20526;-76
2021/12/29 03:00:55;;;;;;;2.60;1.37;;;7.70;99.90;;;;;;5034870;28;20234;-76
2021/12/29 03:03:24;;;;;;;5.03;1.50;;;7.60;99.90;;;;;;5033897;28;20176;-75
2021/12/29 03:05:51;;;;;;;4.53;1.60;;;7.60;99.90;;;;;;5033619;28;20252;-76
2021/12/29 03:08:17;;;;;;;2.83;1.20;;;7.60;99.90;;;;;;5032689;28;20195;-76
2021/12/29 03:10:44;;;;;;;1.70;1.20;;;7.60;99.90;;;;;;5032240;28;20186;-77
2021/12/29 03:13:10;;;;;;;2.27;1.20;;;7.60;99.90;;;;;;5031737;28;20183;-76
2021/12/29 03:15:36;;;;;;;2.83;1.40;;;7.70;99.90;;;;;;5031908;28;20531;-76
2021/12/29 03:18:04;;;;;;;3.43;1.20;;;7.70;99.90;;;;;;5030845;28;20732;-76
2021/12/29 03:20:30;;;;;;;3.00;1.43;;;7.70;99.90;;;;;;5031486;28;20257;-76
2021/12/29 03:22:56;;;;;;;2.17;1.20;;;7.70;99.90;;;;;;5031477;28;20180;-76
2021/12/29 03:25:22;;;;;;;1.30;1.10;;;7.70;99.90;;;;;;5031840;28;20222;-77
2021/12/29 03:27:48;;;;;;;2.87;1.30;;;7.70;99.90;;;;;;5031248;28;20572;-76
2021/12/29 03:30:14;;;;;;;2.73;1.27;;;7.70;99.90;;;;;;5031900;28;20397;-76
2021/12/29 03:32:50;;;;;;;1.30;1.20;;;7.70;99.90;;;;;;5032480;28;20554;-76
2021/12/29 03:35:16;;;;;;;4.23;1.33;;;7.70;99.90;;;;;;5032227;28;20214;-77
2021/12/29 03:37:43;;;;;;;3.17;1.23;;;7.70;99.90;;;;;;5031567;28;20200;-76
2021/12/29 03:40:09;;;;;;;4.97;1.23;;;7.80;99.90;;;;;;5031740;28;20171;-76
2021/12/29 03:42:35;;;;;;;2.50;1.13;;;7.80;99.90;;;;;;5031625;28;20457;-76
2021/12/29 03:45:01;;;;;;;5.13;1.47;;;7.80;99.90;;;;;;5031281;28;20626;-76
2021/12/29 03:47:26;;;;;;;4.50;1.30;;;7.80;99.90;;;;;;5030924;28;20195;-76
2021/12/29 03:49:52;;;;;;;3.83;1.70;;;7.80;99.90;;;;;;5031381;28;20299;-77
2021/12/29 03:52:17;;;;;;;4.90;1.43;;;7.80;99.90;;;;;;5031322;28;20660;-77
2021/12/29 03:54:43;;;;;;;2.13;1.17;;;7.90;99.90;;;;;;5060359;22;20224;-77
2021/12/29 03:57:09;;;;;;;3.00;1.40;;;7.90;99.90;;;;;;5036971;28;20640;-77
2021/12/29 03:59:34;;;;;;;1.37;1.20;;;7.90;99.90;;;;;;5037723;28;20294;-77
2021/12/29 04:02:00;;;;;;;3.33;1.53;;;7.90;99.90;;;;;;5037727;28;20175;-76
2021/12/29 04:04:26;;;;;;;3.33;1.43;;;7.80;99.90;;;;;;5036295;28;20216;-77
2021/12/29 04:06:52;;;;;;;3.07;1.43;;;7.90;99.90;;;;;;5035411;28;20262;-78
2021/12/29 04:09:19;;;;;;;2.93;1.30;;;7.80;99.90;;;;;;5035150;28;20390;-76
2021/12/29 04:11:50;;;;;;;2.20;1.30;;;7.90;99.90;;;;;;5048050;28;20195;-75
2021/12/29 04:14:20;;;;;;;2.20;1.17;;;7.90;99.90;;;;;;5056402;28;20203;-75
2021/12/29 04:16:47;;;;;;;4.10;1.73;;;7.80;99.90;;;;;;5053115;28;20180;-76
2021/12/29 04:19:17;;;;;;;2.43;1.50;;;7.80;99.90;;;;;;5033655;28;20227;-76
2021/12/29 04:21:45;;;;;;;2.80;1.50;;;7.80;99.90;;;;;;5034699;28;20533;-76
2021/12/29 04:24:11;;;;;;;3.40;1.30;;;7.70;99.90;;;;;;5034414;28;20298;-76
2021/12/29 04:26:38;;;;;;;2.40;1.30;;;7.70;99.90;;;;;;5034658;28;20257;-76
2021/12/29 04:29:05;;;;;;;3.20;1.30;;;7.70;99.90;;;;;;5034164;28;20211;-76
2021/12/29 04:31:31;;;;;;;3.90;1.33;;;7.70;99.90;;;;;;5034251;28;20645;-75
2021/12/29 04:33:56;;;;;;;2.87;1.30;;;7.70;99.90;;;;;;5034241;28;20195;-75
2021/12/29 04:36:24;;;;;;;4.27;1.57;;;7.80;99.90;;;;;;5034350;28;20176;-75
2021/12/29 04:38:51;;;;;;;3.57;1.40;;;7.80;99.90;;;;;;5033770;28;20210;-75
2021/12/29 04:41:17;;;;;;;4.73;1.50;;;7.80;99.90;;;;;;5034305;28;20230;-75
2021/12/29 04:43:43;;;;;;;3.50;1.63;;;7.80;99.90;;;;;;5034087;28;20219;-76
2021/12/29 04:46:09;;;;;;;3.53;1.23;;;7.80;99.90;;;;;;5034037;28;20191;-74
2021/12/29 04:48:38;;;;;;;3.80;1.63;;;7.80;99.90;;;;;;5033369;28;20204;-74
2021/12/29 04:51:12;;;;;;;5.27;1.40;;;7.80;99.90;;;;;;5034159;28;20195;-74
2021/12/29 04:53:38;;;;;;;4.10;1.40;;;7.70;99.90;;;;;;5033717;28;20594;-75
2021/12/29 04:56:03;;;;;;;4.07;1.40;;;7.70;99.90;;;;;;5033648;28;20268;-75
2021/12/29 04:58:29;;;;;;;2.63;1.40;;;7.70;99.90;;;;;;5033076;28;20223;-75
2021/12/29 05:00:54;;;;;;;6.27;1.60;;;7.70;99.90;;;;;;5033568;28;20179;-76
2021/12/29 05:03:21;;;;;;;3.10;1.60;;;7.60;99.90;;;;;;5033710;28;20210;-75
2021/12/29 05:08:25;;;;;;;4.07;1.63;;;7.60;99.90;;;;;;5033064;28;20191;-76
2021/12/29 05:08:42;;;;;;;6.93;1.90;;;7.50;99.90;;;;;;5033039;28;20202;-75
2021/12/29 05:11:10;;;;;;;6.30;1.70;;;7.50;99.90;;;;;;5033654;28;20188;-75
2021/12/29 05:13:38;;;;;;;4.07;1.43;;;7.60;99.90;;;;;;5033364;28;20552;-77
2021/12/29 05:16:05;;;;;;;3.73;1.60;;;7.60;99.90;;;;;;5033472;28;20542;-75
2021/12/29 05:18:33;;;;;;;6.37;1.67;;;7.60;99.90;;;;;;5033216;28;20188;-75
2021/12/29 05:21:00;;;;;;;32.77;23.90;;;7.60;99.90;;;;;;5033490;28;20191;-77
2021/12/29 05:23:26;;;;;;;15.43;9.23;;;7.60;99.90;;;;;;5033832;28;20637;-76
2021/12/29 05:25:52;;;;;;;8.10;3.63;;;7.50;99.90;;;;;;5033291;28;20191;-76
2021/12/29 05:28:19;;;;;;;5.10;1.93;;;7.50;99.90;;;;;;5032758;28;20218;-74
2021/12/29 05:30:45;;;;;;;4.70;1.43;;;7.50;99.90;;;;;;5033192;28;20184;-76
2021/12/29 05:33:11;;;;;;;4.53;1.70;;;7.50;99.90;;;;;;5033053;28;20187;-76
2021/12/29 05:35:37;;;;;;;9.63;5.23;;;7.50;99.90;;;;;;5032989;28;20294;-75
2021/12/29 05:38:03;;;;;;;11.30;3.93;;;7.50;99.90;;;;;;5032306;28;20196;-75
2021/12/29 05:40:30;;;;;;;8.47;2.33;;;7.50;99.90;;;;;;5032773;28;20176;-75
2021/12/29 05:42:56;;;;;;;3.73;1.70;;;7.60;99.90;;;;;;5032776;28;20589;-75
2021/12/29 05:45:23;;;;;;;5.37;1.80;;;7.50;99.90;;;;;;5032765;28;20235;-75
2021/12/29 05:47:49;;;;;;;6.17;1.60;;;7.50;99.90;;;;;;5032261;28;20356;-75
2021/12/29 05:50:19;;;;;;;3.60;1.60;;;7.50;99.90;;;;;;5032595;28;20598;-75
2021/12/29 05:52:44;;;;;;;2.80;1.47;;;7.50;99.90;;;;;;5032553;28;20539;-75
2021/12/29 05:55:11;;;;;;;4.23;1.80;;;7.50;99.90;;;;;;5032361;28;20275;-75
2021/12/29 05:57:37;;;;;;;4.57;1.40;;;7.40;99.90;;;;;;5032184;28;20227;-75
2021/12/29 06:00:09;;;;;;;4.37;1.73;;;7.40;99.90;;;;;;5032396;28;20219;-75
2021/12/29 06:02:34;;;;;;;5.33;1.50;;;7.40;99.90;;;;;;5032371;28;20199;-75
2021/12/29 06:05:00;;;;;;;4.20;1.70;;;7.40;99.90;;;;;;5032321;28;20692;-74
2021/12/29 06:07:26;;;;;;;3.27;1.30;;;7.40;99.90;;;;;;5031908;28;20219;-75
2021/12/29 06:09:51;;;;;;;6.00;1.70;;;7.40;99.90;;;;;;5032174;28;20176;-75
2021/12/29 06:12:17;;;;;;;5.47;2.17;;;7.40;99.90;;;;;;5032238;28;20537;-74
2021/12/29 06:14:44;;;;;;;5.37;1.90;;;7.50;99.90;;;;;;5032217;28;20184;-74
2021/12/29 06:17:11;;;;;;;4.63;1.70;;;7.50;99.90;;;;;;5030775;28;20206;-75
2021/12/29 06:19:36;;;;;;;2.80;1.50;;;7.50;99.90;;;;;;5032020;28;20751;-75
2021/12/29 06:22:03;;;;;;;5.40;1.80;;;7.50;99.90;;;;;;5032088;28;20180;-75
2021/12/29 06:24:29;;;;;;;4.23;1.60;;;7.60;99.90;;;;;;5031838;28;20207;-75
2021/12/29 06:26:55;;;;;;;3.73;1.70;;;7.60;99.90;;;;;;5031944;28;20176;-75
2021/12/29 06:29:21;;;;;;;3.17;1.50;;;7.60;99.90;;;;;;5031931;28;20609;-76
2021/12/29 06:31:48;;;;;;;2.80;1.47;;;7.60;99.90;;;;;;5031874;28;20668;-74
2021/12/29 06:34:13;;;;;;;4.73;2.17;;;7.60;99.90;;;;;;5032011;28;20172;-75
2021/12/29 06:36:40;;;;;;;5.27;1.50;;;7.60;99.90;;;;;;5031479;28;20608;-75
2021/12/29 06:39:06;;;;;;;6.50;2.20;;;7.60;99.90;;;;;;5031840;28;20199;-75
2021/12/29 06:41:32;;;;;;;2.33;1.33;;;7.60;99.90;;;;;;5034511;28;20188;-76
2021/12/29 06:43:57;;;;;;;5.10;2.00;;;7.70;99.90;;;;;;5033510;28;20199;-75
2021/12/29 06:46:23;;;;;;;3.87;1.77;;;7.70;99.90;;;;;;5033304;28;20172;-78
2021/12/29 06:48:49;;;;;;;4.57;2.20;;;7.70;99.90;;;;;;5029640;28;20613;-77
2021/12/29 06:51:14;;;;;;;3.47;2.03;;;7.80;99.90;;;;;;5033028;28;20760;-77
2021/12/29 06:53:40;;;;;;;3.33;1.80;;;7.90;99.90;;;;;;5034438;28;20193;-77
2021/12/29 06:56:06;;;;;;;3.60;1.70;;;7.70;99.90;;;;;;5034092;28;20184;-78
2021/12/29 06:58:33;;;;;;;2.33;1.77;;;7.70;99.90;;;;;;5033590;28;20191;-77
2021/12/29 07:00:59;;;;;;;4.77;2.00;;;7.60;99.90;;;;;;5033895;28;20207;-77
2021/12/29 07:03:25;;;;;;;2.73;1.57;;;7.60;99.90;;;;;;5032694;28;20172;-76
2021/12/29 07:05:53;;;;;;;3.35;1.75;;;7.60;99.90;;;;;;5032704;28;20449;-76
2021/12/29 07:08:18;;;;;;;4.30;1.77;;;7.60;99.90;;;;;;5033909;28;20654;-77
2021/12/29 07:10:45;;;;;;;2.30;1.53;;;7.70;99.90;;;;;;5035073;28;20671;-77
2021/12/29 07:13:10;;;;;;;4.27;2.40;;;7.70;99.90;;;;;;5036063;28;20171;-77
2021/12/29 07:15:36;;;;;;;4.23;1.60;;;7.70;99.90;;;;;;5038074;28;20175;-78
2021/12/29 07:18:02;;;;;;;5.00;1.60;;;7.70;99.90;;;;;;5032130;28;20577;-77
2021/12/29 07:20:27;;;;;;;6.17;1.90;;;7.70;99.90;;;;;;5032343;28;20182;-77
2021/12/29 07:22:53;;;;;;;4.97;1.60;;;7.80;99.90;;;;;;5031557;28;20176;-76
2021/12/29 07:25:18;;;;;;;3.20;1.53;;;7.80;99.90;;;;;;5032180;28;20254;-77
2021/12/29 07:27:44;;;;;;;2.63;1.60;;;7.90;99.90;;;;;;5031391;28;20550;-78
2021/12/29 07:30:11;;;;;;;4.17;1.60;;;7.80;99.90;;;;;;5036334;28;20168;-78
2021/12/29 07:32:37;;;;;;;3.63;1.60;;;7.90;99.90;;;;;;5037366;28;20582;-79
2021/12/29 07:35:03;;;;;;;4.40;1.80;;;7.90;99.90;;;;;;5036091;28;20186;-79
2021/12/29 07:37:28;;;;;;;2.73;1.67;;;7.80;99.90;;;;;;5037187;28;20290;-79
2021/12/29 07:39:54;;;;;;;4.97;1.87;;;7.80;99.90;;;;;;5038036;28;20168;-78
2021/12/29 07:42:19;;;;;;;3.57;1.83;;;7.90;99.90;;;;;;5037722;28;20172;-79
2021/12/29 07:44:47;;;;;;;3.53;1.83;;;7.90;99.90;;;;;;5037797;28;20616;-79
2021/12/29 07:47:14;;;;;;;2.43;1.87;;;7.90;99.90;;;;;;5035618;28;20179;-79
2021/12/29 07:49:40;;;;;;;3.57;1.67;;;7.80;99.90;;;;;;5038444;28;20184;-79
2021/12/29 07:52:06;;;;;;;4.63;2.10;;;7.70;99.90;;;;;;5039170;28;20640;-79
2021/12/29 07:54:31;;;;;;;2.07;1.40;;;7.70;99.90;;;;;;5034049;28;20184;-79
2021/12/29 07:56:57;;;;;;;3.83;1.80;;;7.80;99.90;;;;;;5037494;28;20192;-77
2021/12/29 07:59:22;;;;;;;5.87;1.80;;;7.80;99.90;;;;;;5036810;28;20202;-78
2021/12/29 08:01:48;;;;;;;3.37;1.80;;;7.80;99.90;;;;;;5037114;28;20258;-78
2021/12/29 08:04:15;;;;;;;3.70;1.67;;;7.80;99.90;;;;;;5036634;28;20579;-78
2021/12/29 08:06:41;;;;;;;1.90;1.40;;;7.90;99.90;;;;;;5037118;28;20245;-78
2021/12/29 08:09:07;;;;;;;2.93;1.50;;;7.80;99.90;;;;;;5036894;28;20210;-79
2021/12/29 08:11:33;;;;;;;3.97;1.93;;;7.80;99.90;;;;;;5037717;28;20542;-78
2021/12/29 08:13:59;;;;;;;3.13;1.50;;;7.90;99.90;;;;;;5037565;28;20184;-78
2021/12/29 08:16:25;;;;;;;3.13;1.50;;;7.90;99.90;;;;;;5037080;28;20614;-78
2021/12/29 08:18:51;;;;;;;3.47;1.70;;;7.80;99.90;;;;;;5037533;28;20602;-79
2021/12/29 08:21:16;;;;;;;3.13;1.40;;;7.80;99.90;;;;;;5036957;28;20172;-78
2021/12/29 08:23:42;;;;;;;4.27;1.50;;;7.80;99.90;;;;;;5038458;28;20584;-79
2021/12/29 08:26:07;;;;;;;4.20;1.40;;;7.90;99.90;;;;;;5038016;28;20251;-79
2021/12/29 08:28:33;;;;;;;2.80;1.40;;;8.10;99.90;;;;;;5037220;28;20696;-79
2021/12/29 08:30:59;;;;;;;1.60;1.40;;;8.10;99.90;;;;;;5039039;28;20187;-77
2021/12/29 08:33:25;;;;;;;4.80;1.60;;;8.10;99.90;;;;;;5036930;28;20213;-77
2021/12/29 08:35:51;;;;;;;4.43;1.70;;;8.00;99.90;;;;;;5035059;28;20176;-76
2021/12/29 08:38:17;;;;;;;3.50;1.70;;;8.10;99.90;;;;;;5034026;28;20207;-74
2021/12/29 08:40:42;;;;;;;3.67;2.07;;;8.10;99.90;;;;;;5033119;28;20183;-74
2021/12/29 08:43:08;;;;;;;5.00;2.10;;;8.20;99.90;;;;;;5034100;28;20683;-74
2021/12/29 08:45:34;;;;;;;5.80;2.20;;;8.10;99.90;;;;;;5033140;28;20306;-74
2021/12/29 08:48:00;;;;;;;5.53;1.90;;;8.10;99.90;;;;;;5032681;28;20246;-74
2021/12/29 08:50:29;;;;;;;5.43;2.20;;;8.00;99.90;;;;;;5030774;28;20188;-74
2021/12/29 08:52:56;;;;;;;5.50;2.00;;;8.10;99.90;;;;;;5033190;28;20624;-74
2021/12/29 08:55:22;;;;;;;4.10;2.23;;;8.00;99.90;;;;;;5033266;28;20176;-74
2021/12/29 08:57:48;;;;;;;3.03;2.10;;;8.10;99.90;;;;;;5032075;28;20214;-74
2021/12/29 09:00:16;;;;;;;2.40;1.97;;;8.20;99.90;;;;;;5033254;28;20187;-74
2021/12/29 09:02:41;;;;;;;3.30;1.90;;;8.20;99.90;;;;;;5032874;28;20173;-73
2021/12/29 09:05:09;;;;;;;3.30;1.87;;;8.20;99.90;;;;;;5032861;28;20204;-74
2021/12/29 09:07:34;;;;;;;3.93;1.60;;;8.30;99.90;;;;;;5032621;28;20250;-74
2021/12/29 09:10:00;;;;;;;9.00;2.00;;;8.30;99.90;;;;;;5033197;28;20184;-74
2021/12/29 09:12:27;;;;;;;2.93;1.80;;;8.40;99.90;;;;;;5030807;28;20183;-74
2021/12/29 09:14:52;;;;;;;6.20;2.70;;;8.40;99.90;;;;;;5033250;28;20195;-74
2021/12/29 09:17:18;;;;;;;5.87;2.00;;;8.50;99.90;;;;;;5032155;28;20675;-74
2021/12/29 09:19:44;;;;;;;3.73;1.80;;;8.50;99.90;;;;;;5032981;28;20217;-74
2021/12/29 09:22:12;;;;;;;6.53;2.27;;;8.50;99.90;;;;;;5032780;28;20175;-74
2021/12/29 09:24:39;;;;;;;4.93;2.17;;;8.70;99.90;;;;;;5033183;28;20226;-74
2021/12/29 09:27:04;;;;;;;4.50;2.00;;;8.90;99.90;;;;;;5032402;28;20674;-73
2021/12/29 09:29:33;;;;;;;4.73;2.17;;;8.80;99.90;;;;;;5033112;28;20175;-75
2021/12/29 09:31:59;;;;;;;5.03;1.90;;;8.80;99.90;;;;;;5032525;28;20179;-75
2021/12/29 09:34:25;;;;;;;2.87;1.40;;;8.70;99.90;;;;;;5032597;28;20179;-75
2021/12/29 09:36:51;;;;;;;6.80;1.90;;;8.70;99.90;;;;;;5032144;28;20172;-75
2021/12/29 09:39:16;;;;;;;4.80;2.23;;;8.70;99.90;;;;;;5032549;28;20196;-73
2021/12/29 09:41:42;;;;;;;8.97;2.30;;;9.00;99.90;;;;;;5032999;28;20221;-75
2021/12/29 09:44:09;;;;;;;3.93;1.67;;;9.10;99.90;;;;;;5032273;28;20257;-76
2021/12/29 09:46:36;;;;;;;2.80;1.67;;;9.10;99.90;;;;;;5031141;28;20234;-74
2021/12/29 09:49:02;;;;;;;2.73;1.60;;;8.90;99.90;;;;;;5032282;28;20207;-75
2021/12/29 09:51:28;;;;;;;5.67;1.97;;;9.00;99.90;;;;;;5032403;28;20713;-73
2021/12/29 09:53:54;;;;;;;5.57;2.37;;;9.20;99.90;;;;;;5032344;28;20283;-74
2021/12/29 09:56:21;;;;;;;4.07;1.70;;;9.20;99.90;;;;;;5032636;28;20199;-74
2021/12/29 09:58:46;;;;;;;4.83;1.93;;;9.30;99.90;;;;;;5031863;28;20222;-75
2021/12/29 10:01:12;;;;;;;2.57;1.60;;;9.30;99.90;;;;;;5032287;28;20657;-75
2021/12/29 10:03:39;;;;;;;6.40;1.87;;;9.30;99.90;;;;;;5032485;28;20552;-75
2021/12/29 10:06:08;;;;;;;4.43;1.90;;;9.20;99.90;;;;;;5032625;28;20251;-76
2021/12/29 10:08:44;;;;;;;7.70;2.40;;;9.20;99.90;;;;;;5031839;28;20201;-73
2021/12/29 10:11:31;;;;;;;4.17;2.77;;;9.40;99.90;;;;;;5032320;28;20172;-73
2021/12/29 10:13:58;;;;;;;4.10;2.90;;;9.30;99.90;;;;;;5032511;28;20188;-75
2021/12/29 10:16:29;;;;;;;3.10;1.87;;;9.40;99.90;;;;;;5032479;28;20175;-76
2021/12/29 10:19:05;;;;;;;6.43;2.37;;;9.30;99.90;;;;;;5031760;28;20722;-74
2021/12/29 10:21:31;;;;;;;3.50;2.03;;;9.40;99.90;;;;;;5032401;28;20262;-75
2021/12/29 10:23:58;;;;;;;4.17;2.07;;;9.40;99.90;;;;;;5032003;28;20204;-76
2021/12/29 10:26:26;;;;;;;2.87;2.23;;;9.40;99.90;;;;;;5032155;28;20176;-75
2021/12/29 10:28:56;;;;;;;3.70;2.13;;;9.50;99.90;;;;;;5031081;28;20196;-74
2021/12/29 10:31:28;;;;;;;5.03;1.87;;;9.60;99.90;;;;;;5031838;28;20172;-74
2021/12/29 10:34:04;;;;;;;2.83;1.60;;;9.60;99.90;;;;;;5031954;28;20183;-74
2021/12/29 10:36:36;;;;;;;4.60;2.20;;;9.70;99.90;;;;;;5031717;28;20229;-75
2021/12/29 10:39:12;;;;;;;5.47;1.83;;;9.80;99.90;;;;;;5031177;28;20186;-75
2021/12/29 10:41:55;;;;;;;5.00;1.70;;;9.70;77.60;;;;;;5031767;28;20184;-74
2021/12/29 10:44:41;;;;;;;6.30;2.07;;;9.70;91.70;;;;;;5031638;28;20233;-74
2021/12/29 10:47:20;;;;;;;4.40;2.00;;;9.80;37.20;;;;;;5031044;28;20172;-74
2021/12/29 10:49:53;;;;;;;5.37;1.93;;;9.90;28.50;;;;;;5031751;28;20184;-76
2021/12/29 10:52:44;;;;;;;6.33;4.10;;;9.80;2.80;;;;;;5031480;28;20648;-76
2021/12/29 10:55:15;;;;;;;8.90;5.93;;;9.90;29.40;;;;;;5031422;28;20198;-74
2021/12/29 10:57:41;;;;;;;7.53;5.20;;;9.90;30.50;;;;;;5030722;28;20206;-75
2021/12/29 11:00:12;;;;;;;6.83;2.00;;;9.80;32.50;;;;;;5031649;28;20190;-74
2021/12/29 11:02:38;;;;;;;7.13;3.77;;;9.80;43.80;;;;;;5031184;28;20206;-76
2021/12/29 11:05:07;;;;;;;3.13;1.70;;;9.80;26.20;;;;;;5031327;28;20239;-75
2021/12/29 11:07:34;;;;;;;5.07;1.60;;;9.80;1.00;;;;;;5032178;28;20203;-75
2021/12/29 11:10:15;;;;;;;4.10;1.70;;;9.70;1.00;;;;;;5031526;28;20556;-75
2021/12/29 11:12:55;;;;;;;3.07;1.63;;;9.80;1.00;;;;;;5030964;28;20549;-75
2021/12/29 11:15:27;;;;;;;3.47;1.63;;;9.80;1.00;;;;;;5031479;28;20183;-75
2021/12/29 11:17:54;;;;;;;4.17;1.87;;;9.80;1.00;;;;;;5030879;28;20702;-75
2021/12/29 11:20:23;;;;;;;6.13;1.83;;;9.70;1.00;;;;;;5031423;28;20183;-76
2021/12/29 11:22:51;;;;;;;3.17;1.60;;;9.70;1.00;;;;;;5031609;28;20171;-75
2021/12/29 11:25:27;;;;;;;4.77;1.80;;;9.70;7.40;;;;;;5031435;28;20211;-75
2021/12/29 11:27:53;;;;;;;3.33;2.43;;;9.70;8.00;;;;;;5030846;28;20274;-75
2021/12/29 11:30:18;;;;;;;4.53;1.80;;;9.70;73.90;;;;;;5031578;28;20310;-74
2021/12/29 11:32:46;;;;;;;3.80;1.50;;;9.60;37.10;;;;;;5031566;28;20218;-75
2021/12/29 11:35:14;;;;;;;4.10;1.60;;;9.60;38.40;;;;;;5031781;28;20180;-75
2021/12/29 11:37:42;;;;;;;3.73;1.70;;;9.50;62.80;;;;;;5031134;28;20191;-75
2021/12/29 11:40:08;;;;;;;7.53;1.80;;;9.50;58.70;;;;;;5031553;28;20187;-74
2021/12/29 11:42:34;;;;;;;4.13;1.83;;;9.60;94.90;;;;;;5031140;28;20229;-74
2021/12/29 11:45:00;;;;;;;3.40;1.60;;;9.50;34.50;;;;;;5030971;28;20621;-74
2021/12/29 11:47:26;;;;;;;4.93;1.80;;;9.60;66.70;;;;;;5030112;28;20994;-75
2021/12/29 11:49:51;;;;;;;5.10;1.80;;;9.60;42.40;;;;;;5030433;28;20226;-75
2021/12/29 11:52:17;;;;;;;6.27;2.00;;;9.50;83.70;;;;;;5030702;28;20208;-76
2021/12/29 11:55:11;;;;;;;17.87;9.57;;;9.60;99.80;;;;;;5045540;23;20179;-79
2021/12/29 11:57:37;;;;;;;8.60;4.23;;;9.60;66.30;;;;;;4991295;28;20686;-81
2021/12/29 12:00:17;;;;;;;5.67;2.80;;;9.60;55.60;;;;;;4994562;28;20182;-79
2021/12/29 12:02:48;;;;;;;5.97;3.13;;;9.60;32.90;;;;;;4996715;28;20189;-79
2021/12/29 12:05:24;;;;;;;6.13;2.43;;;9.60;65.30;;;;;;4996256;28;20217;-79
2021/12/29 12:07:50;;;;;;;5.40;2.20;;;9.70;73.50;;;;;;4998249;28;20211;-79
2021/12/29 12:10:35;;;;;;;5.83;2.07;;;9.70;26.00;;;;;;4993519;28;20260;-78
2021/12/29 12:13:05;;;;;;;3.73;1.80;;;9.80;28.30;;;;;;4992284;28;20223;-80
2021/12/29 12:15:33;;;;;;;5.43;1.80;;;9.80;1.00;;;;;;4994168;28;20558;-79
2021/12/29 12:18:07;;;;;;;6.07;1.80;;;9.80;17.10;;;;;;4995199;28;20733;-78
2021/12/29 12:20:58;;;;;;;4.90;2.10;;;9.90;1.00;;;;;;4995801;28;20184;-77
2021/12/29 12:23:27;;;;;;;5.87;1.80;;;10.00;1.00;;;;;;4992624;28;20189;-79
2021/12/29 12:25:55;;;;;;;4.50;1.83;;;10.10;1.00;;;;;;4996211;28;20244;-77
2021/12/29 12:28:25;;;;;;;4.97;2.10;;;10.20;1.00;;;;;;4996333;28;20201;-76
2021/12/29 12:30:54;;;;;;;7.63;2.60;;;10.10;1.00;;;;;;4995566;28;20622;-76
2021/12/29 12:33:28;;;;;;;5.60;2.07;;;10.20;1.00;;;;;;4995702;28;20177;-76
2021/12/29 12:35:58;;;;;;;7.60;2.27;;;10.00;1.00;;;;;;4995421;28;20181;-76
2021/12/29 12:38:32;;;;;;;8.10;2.90;;;10.00;1.00;;;;;;4994736;28;20193;-76
2021/12/29 12:41:09;;;;;;;6.67;2.10;;;9.90;1.00;;;;;;4995277;28;20547;-76
2021/12/29 12:43:57;;;;;;;24.07;15.53;;;9.90;1.00;;;;;;4995549;28;20267;-76
2021/12/29 12:46:42;;;;;;;11.97;5.40;;;10.00;1.00;;;;;;4995190;28;20185;-75
2021/12/29 12:49:16;;;;;;;9.50;3.00;;;10.00;1.00;;;;;;4994578;28;20232;-76
2021/12/29 12:52:00;;;;;;;7.33;2.20;;;10.00;1.00;;;;;;4994886;28;20197;-76
2021/12/29 12:54:29;;;;;;;6.40;2.40;;;10.00;1.00;;;;;;4994678;28;20174;-75
2021/12/29 12:56:59;;;;;;;6.03;1.93;;;10.00;1.00;;;;;;4994259;28;20672;-75
2021/12/29 12:59:37;;;;;;;4.97;2.10;;;10.00;1.00;;;;;;4994928;28;20184;-76
2021/12/29 13:02:13;;;;;;;5.37;2.27;;;10.00;1.00;;;;;;4994776;28;20180;-76
2021/12/29 13:05:16;;;;;;;4.73;2.30;;;10.00;1.00;;;;;;4994994;28;20217;-76